sensor_id;sensor_type;location;lat;lon;timestamp;P1;durP1;ratioP1;P2;durP2;ratioP2
53753;SDS011;39667;52.274;20.964;2024-01-30T00:02:24;29.90;;;22.70;;
53753;SDS011;39667;52.274;20.964;2024-01-30T00:04:52;32.80;;;22.30;;
53753;SDS011;39667;52.274;20.964;2024-01-30T00:07:19;30.70;;;22.80;;
53753;SDS011;39667;52.274;20.964;2024-01-30T00:09:47;33.90;;;23.30;;
53753;SDS011;39667;52.274;20.964;2024-01-30T00:12:19;32.00;;;23.20;;
53753;SDS011;39667;52.274;20.964;2024-01-30T00:14:46;30.20;;;23.00;;
53753;SDS011;39667;52.274;20.964;2024-01-30T00:17:16;28.80;;;21.80;;
53753;SDS011;39667;52.274;20.964;2024-01-30T00:19:43;30.40;;;22.90;;
53753;SDS011;39667;52.274;20.964;2024-01-30T00:22:12;29.40;;;22.80;;
53753;SDS011;39667;52.274;20.964;2024-01-30T00:24:42;32.10;;;24.30;;
53753;SDS011;39667;52.274;20.964;2024-01-30T00:27:11;32.80;;;24.60;;
53753;SDS011;39667;52.274;20.964;2024-01-30T00:29:40;34.40;;;25.10;;
53753;SDS011;39667;52.274;20.964;2024-01-30T00:32:08;31.00;;;23.20;;
53753;SDS011;39667;52.274;20.964;2024-01-30T00:34:35;28.00;;;22.10;;
53753;SDS011;39667;52.274;20.964;2024-01-30T00:37:02;30.20;;;22.50;;
53753;SDS011;39667;52.274;20.964;2024-01-30T00:39:30;31.40;;;21.40;;
53753;SDS011;39667;52.274;20.964;2024-01-30T00:41:57;33.20;;;21.70;;
53753;SDS011;39667;52.274;20.964;2024-01-30T00:44:30;32.50;;;24.00;;
53753;SDS011;39667;52.274;20.964;2024-01-30T00:46:59;33.20;;;23.10;;
53753;SDS011;39667;52.274;20.964;2024-01-30T00:49:33;29.30;;;22.30;;
53753;SDS011;39667;52.274;20.964;2024-01-30T00:52:03;29.50;;;21.10;;
53753;SDS011;39667;52.274;20.964;2024-01-30T00:54:32;32.60;;;23.50;;
53753;SDS011;39667;52.274;20.964;2024-01-30T00:57:00;31.10;;;21.90;;
53753;SDS011;39667;52.274;20.964;2024-01-30T00:59:33;30.10;;;21.90;;
53753;SDS011;39667;52.274;20.964;2024-01-30T01:02:01;31.70;;;23.50;;
53753;SDS011;39667;52.274;20.964;2024-01-30T01:04:28;33.40;;;24.00;;
53753;SDS011;39667;52.274;20.964;2024-01-30T01:06:55;30.90;;;22.60;;
53753;SDS011;39667;52.274;20.964;2024-01-30T01:09:23;35.10;;;23.60;;
53753;SDS011;39667;52.274;20.964;2024-01-30T01:11:52;32.10;;;23.40;;
53753;SDS011;39667;52.274;20.964;2024-01-30T01:14:19;32.60;;;25.50;;
53753;SDS011;39667;52.274;20.964;2024-01-30T01:16:47;34.10;;;23.60;;
53753;SDS011;39667;52.274;20.964;2024-01-30T01:19:14;29.90;;;23.50;;
53753;SDS011;39667;52.274;20.964;2024-01-30T01:21:42;35.10;;;23.30;;
53753;SDS011;39667;52.274;20.964;2024-01-30T01:24:10;32.90;;;23.90;;
53753;SDS011;39667;52.274;20.964;2024-01-30T01:26:37;30.50;;;22.70;;
53753;SDS011;39667;52.274;20.964;2024-01-30T01:29:08;34.20;;;24.50;;
53753;SDS011;39667;52.274;20.964;2024-01-30T01:31:39;28.60;;;22.40;;
53753;SDS011;39667;52.274;20.964;2024-01-30T01:34:12;33.30;;;23.70;;
53753;SDS011;39667;52.274;20.964;2024-01-30T01:36:40;30.10;;;21.50;;
53753;SDS011;39667;52.274;20.964;2024-01-30T01:39:16;29.70;;;22.00;;
53753;SDS011;39667;52.274;20.964;2024-01-30T01:41:43;31.50;;;23.60;;
53753;SDS011;39667;52.274;20.964;2024-01-30T01:44:14;36.20;;;25.20;;
53753;SDS011;39667;52.274;20.964;2024-01-30T01:46:41;32.70;;;23.30;;
53753;SDS011;39667;52.274;20.964;2024-01-30T01:49:15;33.20;;;23.20;;
53753;SDS011;39667;52.274;20.964;2024-01-30T01:51:43;38.70;;;24.40;;
53753;SDS011;39667;52.274;20.964;2024-01-30T01:54:14;32.90;;;23.60;;
53753;SDS011;39667;52.274;20.964;2024-01-30T01:56:44;33.10;;;23.10;;
53753;SDS011;39667;52.274;20.964;2024-01-30T01:59:11;34.20;;;22.00;;
53753;SDS011;39667;52.274;20.964;2024-01-30T02:01:45;33.10;;;23.00;;
53753;SDS011;39667;52.274;20.964;2024-01-30T02:04:16;30.30;;;22.30;;
53753;SDS011;39667;52.274;20.964;2024-01-30T02:06:44;32.20;;;23.10;;
53753;SDS011;39667;52.274;20.964;2024-01-30T02:09:13;31.50;;;23.50;;
53753;SDS011;39667;52.274;20.964;2024-01-30T02:11:46;30.90;;;22.80;;
53753;SDS011;39667;52.274;20.964;2024-01-30T02:14:15;33.60;;;24.20;;
53753;SDS011;39667;52.274;20.964;2024-01-30T02:16:43;33.60;;;24.50;;
53753;SDS011;39667;52.274;20.964;2024-01-30T02:19:12;29.80;;;23.10;;
53753;SDS011;39667;52.274;20.964;2024-01-30T02:21:40;32.90;;;21.60;;
53753;SDS011;39667;52.274;20.964;2024-01-30T02:24:08;30.70;;;22.60;;
53753;SDS011;39667;52.274;20.964;2024-01-30T02:26:35;30.30;;;22.30;;
53753;SDS011;39667;52.274;20.964;2024-01-30T02:29:03;35.80;;;24.30;;
53753;SDS011;39667;52.274;20.964;2024-01-30T02:31:31;31.50;;;22.60;;
53753;SDS011;39667;52.274;20.964;2024-01-30T02:33:58;32.30;;;23.20;;
53753;SDS011;39667;52.274;20.964;2024-01-30T02:36:51;32.70;;;23.60;;
53753;SDS011;39667;52.274;20.964;2024-01-30T02:39:19;30.70;;;22.30;;
53753;SDS011;39667;52.274;20.964;2024-01-30T02:41:46;31.70;;;21.80;;
53753;SDS011;39667;52.274;20.964;2024-01-30T02:44:13;31.40;;;22.00;;
53753;SDS011;39667;52.274;20.964;2024-01-30T02:46:41;28.90;;;21.80;;
53753;SDS011;39667;52.274;20.964;2024-01-30T02:49:10;30.60;;;22.30;;
53753;SDS011;39667;52.274;20.964;2024-01-30T02:51:38;31.80;;;22.50;;
53753;SDS011;39667;52.274;20.964;2024-01-30T02:54:06;30.80;;;21.90;;
53753;SDS011;39667;52.274;20.964;2024-01-30T02:56:34;29.80;;;22.40;;
53753;SDS011;39667;52.274;20.964;2024-01-30T02:59:03;34.50;;;23.50;;
53753;SDS011;39667;52.274;20.964;2024-01-30T03:01:31;33.10;;;22.90;;
53753;SDS011;39667;52.274;20.964;2024-01-30T03:03:58;33.40;;;23.40;;
53753;SDS011;39667;52.274;20.964;2024-01-30T03:06:26;30.20;;;21.60;;
53753;SDS011;39667;52.274;20.964;2024-01-30T03:08:53;32.60;;;22.30;;
53753;SDS011;39667;52.274;20.964;2024-01-30T03:11:20;31.40;;;22.00;;
53753;SDS011;39667;52.274;20.964;2024-01-30T03:13:48;26.80;;;21.10;;
53753;SDS011;39667;52.274;20.964;2024-01-30T03:16:18;28.30;;;21.50;;
53753;SDS011;39667;52.274;20.964;2024-01-30T03:18:46;31.70;;;22.80;;
53753;SDS011;39667;52.274;20.964;2024-01-30T03:21:14;28.70;;;21.20;;
53753;SDS011;39667;52.274;20.964;2024-01-30T03:23:42;31.80;;;21.70;;
53753;SDS011;39667;52.274;20.964;2024-01-30T03:26:12;30.70;;;22.00;;
53753;SDS011;39667;52.274;20.964;2024-01-30T03:28:39;30.40;;;21.20;;
53753;SDS011;39667;52.274;20.964;2024-01-30T03:31:09;32.30;;;21.50;;
53753;SDS011;39667;52.274;20.964;2024-01-30T03:33:37;26.80;;;20.30;;
53753;SDS011;39667;52.274;20.964;2024-01-30T03:36:09;30.40;;;22.00;;
53753;SDS011;39667;52.274;20.964;2024-01-30T03:38:37;27.80;;;20.50;;
53753;SDS011;39667;52.274;20.964;2024-01-30T03:41:07;25.00;;;18.90;;
53753;SDS011;39667;52.274;20.964;2024-01-30T03:43:36;34.00;;;21.40;;
53753;SDS011;39667;52.274;20.964;2024-01-30T03:46:03;30.80;;;22.20;;
53753;SDS011;39667;52.274;20.964;2024-01-30T03:48:32;31.70;;;22.00;;
53753;SDS011;39667;52.274;20.964;2024-01-30T03:51:01;30.50;;;21.90;;
53753;SDS011;39667;52.274;20.964;2024-01-30T03:53:28;26.00;;;19.90;;
53753;SDS011;39667;52.274;20.964;2024-01-30T03:55:56;29.20;;;20.90;;
53753;SDS011;39667;52.274;20.964;2024-01-30T03:58:24;30.40;;;21.20;;
53753;SDS011;39667;52.274;20.964;2024-01-30T04:00:54;28.90;;;21.50;;
53753;SDS011;39667;52.274;20.964;2024-01-30T04:03:22;28.10;;;21.10;;
53753;SDS011;39667;52.274;20.964;2024-01-30T04:05:49;31.70;;;22.30;;
53753;SDS011;39667;52.274;20.964;2024-01-30T04:08:19;30.70;;;22.30;;
53753;SDS011;39667;52.274;20.964;2024-01-30T04:10:48;29.20;;;20.80;;
53753;SDS011;39667;52.274;20.964;2024-01-30T04:13:15;28.80;;;20.90;;
53753;SDS011;39667;52.274;20.964;2024-01-30T04:15:43;28.10;;;20.80;;
53753;SDS011;39667;52.274;20.964;2024-01-30T04:18:12;28.00;;;20.80;;
53753;SDS011;39667;52.274;20.964;2024-01-30T04:20:40;25.80;;;20.00;;
53753;SDS011;39667;52.274;20.964;2024-01-30T04:23:09;30.00;;;20.60;;
53753;SDS011;39667;52.274;20.964;2024-01-30T04:25:38;28.40;;;21.10;;
53753;SDS011;39667;52.274;20.964;2024-01-30T04:28:05;29.50;;;21.60;;
53753;SDS011;39667;52.274;20.964;2024-01-30T04:30:34;29.20;;;21.30;;
53753;SDS011;39667;52.274;20.964;2024-01-30T04:33:02;29.50;;;21.50;;
53753;SDS011;39667;52.274;20.964;2024-01-30T04:35:30;29.80;;;21.50;;
53753;SDS011;39667;52.274;20.964;2024-01-30T04:37:58;28.60;;;20.60;;
53753;SDS011;39667;52.274;20.964;2024-01-30T04:40:28;30.30;;;19.50;;
53753;SDS011;39667;52.274;20.964;2024-01-30T04:42:56;28.80;;;21.60;;
53753;SDS011;39667;52.274;20.964;2024-01-30T04:45:24;29.40;;;21.10;;
53753;SDS011;39667;52.274;20.964;2024-01-30T04:47:52;32.90;;;21.90;;
53753;SDS011;39667;52.274;20.964;2024-01-30T04:50:19;27.80;;;20.10;;
53753;SDS011;39667;52.274;20.964;2024-01-30T04:52:49;29.50;;;20.70;;
53753;SDS011;39667;52.274;20.964;2024-01-30T04:55:16;28.50;;;21.20;;
53753;SDS011;39667;52.274;20.964;2024-01-30T04:57:47;30.00;;;21.10;;
53753;SDS011;39667;52.274;20.964;2024-01-30T05:00:15;27.50;;;20.50;;
53753;SDS011;39667;52.274;20.964;2024-01-30T05:02:45;29.10;;;19.60;;
53753;SDS011;39667;52.274;20.964;2024-01-30T05:05:13;28.40;;;20.20;;
53753;SDS011;39667;52.274;20.964;2024-01-30T05:07:41;29.40;;;21.90;;
53753;SDS011;39667;52.274;20.964;2024-01-30T05:10:11;28.60;;;20.20;;
53753;SDS011;39667;52.274;20.964;2024-01-30T05:12:38;27.20;;;20.90;;
53753;SDS011;39667;52.274;20.964;2024-01-30T05:15:07;29.70;;;21.00;;
53753;SDS011;39667;52.274;20.964;2024-01-30T05:17:35;29.00;;;21.40;;
53753;SDS011;39667;52.274;20.964;2024-01-30T05:20:07;28.90;;;19.80;;
53753;SDS011;39667;52.274;20.964;2024-01-30T05:22:37;29.00;;;20.80;;
53753;SDS011;39667;52.274;20.964;2024-01-30T05:25:06;31.00;;;20.90;;
53753;SDS011;39667;52.274;20.964;2024-01-30T05:27:34;28.40;;;19.50;;
53753;SDS011;39667;52.274;20.964;2024-01-30T05:30:02;24.90;;;18.50;;
53753;SDS011;39667;52.274;20.964;2024-01-30T05:32:30;31.00;;;20.60;;
53753;SDS011;39667;52.274;20.964;2024-01-30T05:34:58;25.30;;;19.40;;
53753;SDS011;39667;52.274;20.964;2024-01-30T05:37:32;24.20;;;18.90;;
53753;SDS011;39667;52.274;20.964;2024-01-30T05:40:00;31.20;;;21.80;;
53753;SDS011;39667;52.274;20.964;2024-01-30T05:42:30;28.30;;;21.20;;
53753;SDS011;39667;52.274;20.964;2024-01-30T05:44:57;27.80;;;20.80;;
53753;SDS011;39667;52.274;20.964;2024-01-30T05:47:25;28.90;;;20.20;;
53753;SDS011;39667;52.274;20.964;2024-01-30T05:49:53;29.10;;;20.20;;
53753;SDS011;39667;52.274;20.964;2024-01-30T05:52:20;26.80;;;19.00;;
53753;SDS011;39667;52.274;20.964;2024-01-30T05:54:48;29.70;;;21.40;;
53753;SDS011;39667;52.274;20.964;2024-01-30T05:57:16;29.00;;;20.00;;
53753;SDS011;39667;52.274;20.964;2024-01-30T05:59:48;27.70;;;19.60;;
53753;SDS011;39667;52.274;20.964;2024-01-30T06:02:15;30.10;;;21.20;;
53753;SDS011;39667;52.274;20.964;2024-01-30T06:04:44;30.60;;;21.70;;
53753;SDS011;39667;52.274;20.964;2024-01-30T06:07:12;32.10;;;22.20;;
53753;SDS011;39667;52.274;20.964;2024-01-30T06:09:44;30.20;;;20.30;;
53753;SDS011;39667;52.274;20.964;2024-01-30T06:12:13;28.70;;;19.70;;
53753;SDS011;39667;52.274;20.964;2024-01-30T06:14:40;29.70;;;20.20;;
53753;SDS011;39667;52.274;20.964;2024-01-30T06:17:13;27.40;;;20.50;;
53753;SDS011;39667;52.274;20.964;2024-01-30T06:19:40;28.00;;;20.50;;
53753;SDS011;39667;52.274;20.964;2024-01-30T06:22:09;28.40;;;20.10;;
53753;SDS011;39667;52.274;20.964;2024-01-30T06:24:37;33.90;;;22.20;;
53753;SDS011;39667;52.274;20.964;2024-01-30T06:27:05;28.90;;;20.80;;
53753;SDS011;39667;52.274;20.964;2024-01-30T06:29:34;28.50;;;19.80;;
53753;SDS011;39667;52.274;20.964;2024-01-30T06:32:02;33.00;;;22.00;;
53753;SDS011;39667;52.274;20.964;2024-01-30T06:34:31;29.80;;;20.00;;
53753;SDS011;39667;52.274;20.964;2024-01-30T06:36:58;27.20;;;19.50;;
53753;SDS011;39667;52.274;20.964;2024-01-30T06:39:29;27.70;;;18.80;;
53753;SDS011;39667;52.274;20.964;2024-01-30T06:41:56;25.40;;;18.90;;
53753;SDS011;39667;52.274;20.964;2024-01-30T06:44:24;25.80;;;18.00;;
53753;SDS011;39667;52.274;20.964;2024-01-30T06:46:52;26.70;;;19.20;;
53753;SDS011;39667;52.274;20.964;2024-01-30T06:49:20;26.60;;;19.70;;
53753;SDS011;39667;52.274;20.964;2024-01-30T06:51:48;30.70;;;21.20;;
53753;SDS011;39667;52.274;20.964;2024-01-30T06:54:16;28.20;;;20.00;;
53753;SDS011;39667;52.274;20.964;2024-01-30T06:56:45;27.70;;;19.70;;
53753;SDS011;39667;52.274;20.964;2024-01-30T06:59:13;27.30;;;18.70;;
53753;SDS011;39667;52.274;20.964;2024-01-30T07:01:42;28.30;;;20.50;;
53753;SDS011;39667;52.274;20.964;2024-01-30T07:04:12;27.30;;;20.20;;
53753;SDS011;39667;52.274;20.964;2024-01-30T07:06:39;26.20;;;19.30;;
53753;SDS011;39667;52.274;20.964;2024-01-30T07:09:08;27.20;;;19.80;;
53753;SDS011;39667;52.274;20.964;2024-01-30T07:11:35;25.00;;;18.00;;
53753;SDS011;39667;52.274;20.964;2024-01-30T07:14:02;25.60;;;18.90;;
53753;SDS011;39667;52.274;20.964;2024-01-30T07:16:33;27.10;;;20.00;;
53753;SDS011;39667;52.274;20.964;2024-01-30T07:19:02;31.60;;;19.80;;
53753;SDS011;39667;52.274;20.964;2024-01-30T07:21:29;30.30;;;19.80;;
53753;SDS011;39667;52.274;20.964;2024-01-30T07:23:57;29.90;;;20.00;;
53753;SDS011;39667;52.274;20.964;2024-01-30T07:26:27;27.80;;;19.30;;
53753;SDS011;39667;52.274;20.964;2024-01-30T07:28:56;28.50;;;19.90;;
53753;SDS011;39667;52.274;20.964;2024-01-30T07:31:24;31.30;;;20.60;;
53753;SDS011;39667;52.274;20.964;2024-01-30T07:33:52;27.00;;;20.60;;
53753;SDS011;39667;52.274;20.964;2024-01-30T07:36:21;27.60;;;18.60;;
53753;SDS011;39667;52.274;20.964;2024-01-30T07:38:49;27.50;;;19.70;;
53753;SDS011;39667;52.274;20.964;2024-01-30T07:41:17;28.80;;;19.50;;
53753;SDS011;39667;52.274;20.964;2024-01-30T07:43:44;28.20;;;19.40;;
53753;SDS011;39667;52.274;20.964;2024-01-30T07:46:12;28.00;;;19.20;;
53753;SDS011;39667;52.274;20.964;2024-01-30T07:48:40;27.60;;;18.20;;
53753;SDS011;39667;52.274;20.964;2024-01-30T07:51:09;25.50;;;19.90;;
53753;SDS011;39667;52.274;20.964;2024-01-30T07:53:37;29.60;;;19.90;;
53753;SDS011;39667;52.274;20.964;2024-01-30T07:56:05;25.70;;;18.20;;
53753;SDS011;39667;52.274;20.964;2024-01-30T07:58:36;27.00;;;19.60;;
53753;SDS011;39667;52.274;20.964;2024-01-30T08:01:04;27.90;;;20.10;;
53753;SDS011;39667;52.274;20.964;2024-01-30T08:03:33;27.90;;;20.20;;
53753;SDS011;39667;52.274;20.964;2024-01-30T08:06:01;30.30;;;20.20;;
53753;SDS011;39667;52.274;20.964;2024-01-30T08:08:30;26.60;;;19.00;;
53753;SDS011;39667;52.274;20.964;2024-01-30T08:10:57;25.90;;;19.20;;
53753;SDS011;39667;52.274;20.964;2024-01-30T08:13:24;26.50;;;18.90;;
53753;SDS011;39667;52.274;20.964;2024-01-30T08:15:52;29.10;;;19.70;;
53753;SDS011;39667;52.274;20.964;2024-01-30T08:18:20;25.80;;;19.90;;
53753;SDS011;39667;52.274;20.964;2024-01-30T08:20:49;23.60;;;18.50;;
53753;SDS011;39667;52.274;20.964;2024-01-30T08:23:18;30.10;;;20.20;;
53753;SDS011;39667;52.274;20.964;2024-01-30T08:25:48;23.90;;;18.50;;
53753;SDS011;39667;52.274;20.964;2024-01-30T08:28:17;25.80;;;18.20;;
53753;SDS011;39667;52.274;20.964;2024-01-30T08:30:47;27.60;;;19.90;;
53753;SDS011;39667;52.274;20.964;2024-01-30T08:33:14;25.00;;;19.00;;
53753;SDS011;39667;52.274;20.964;2024-01-30T08:35:42;26.00;;;19.90;;
53753;SDS011;39667;52.274;20.964;2024-01-30T08:38:11;28.00;;;20.00;;
53753;SDS011;39667;52.274;20.964;2024-01-30T08:40:39;26.20;;;19.20;;
53753;SDS011;39667;52.274;20.964;2024-01-30T08:43:08;28.90;;;19.00;;
53753;SDS011;39667;52.274;20.964;2024-01-30T08:45:37;28.10;;;18.80;;
53753;SDS011;39667;52.274;20.964;2024-01-30T08:48:06;26.50;;;19.40;;
53753;SDS011;39667;52.274;20.964;2024-01-30T08:50:34;31.40;;;19.60;;
53753;SDS011;39667;52.274;20.964;2024-01-30T08:53:01;28.40;;;19.30;;
53753;SDS011;39667;52.274;20.964;2024-01-30T08:55:29;26.60;;;19.30;;
53753;SDS011;39667;52.274;20.964;2024-01-30T08:57:57;26.50;;;18.30;;
53753;SDS011;39667;52.274;20.964;2024-01-30T09:00:26;25.40;;;18.20;;
53753;SDS011;39667;52.274;20.964;2024-01-30T09:02:53;26.00;;;17.80;;
53753;SDS011;39667;52.274;20.964;2024-01-30T09:05:24;23.10;;;16.80;;
53753;SDS011;39667;52.274;20.964;2024-01-30T09:07:52;27.40;;;17.30;;
53753;SDS011;39667;52.274;20.964;2024-01-30T09:10:19;21.80;;;16.80;;
53753;SDS011;39667;52.274;20.964;2024-01-30T09:12:47;23.90;;;16.30;;
53753;SDS011;39667;52.274;20.964;2024-01-30T09:15:16;21.70;;;14.90;;
53753;SDS011;39667;52.274;20.964;2024-01-30T09:17:50;21.00;;;15.10;;
53753;SDS011;39667;52.274;20.964;2024-01-30T09:20:41;20.00;;;15.50;;
53753;SDS011;39667;52.274;20.964;2024-01-30T09:23:08;19.50;;;14.90;;
53753;SDS011;39667;52.274;20.964;2024-01-30T09:25:37;21.00;;;15.20;;
53753;SDS011;39667;52.274;20.964;2024-01-30T09:28:05;21.60;;;15.00;;
53753;SDS011;39667;52.274;20.964;2024-01-30T09:30:35;20.40;;;14.30;;
53753;SDS011;39667;52.274;20.964;2024-01-30T09:33:03;24.90;;;14.60;;
53753;SDS011;39667;52.274;20.964;2024-01-30T09:35:30;22.60;;;14.80;;
53753;SDS011;39667;52.274;20.964;2024-01-30T09:38:00;23.50;;;15.70;;
53753;SDS011;39667;52.274;20.964;2024-01-30T09:40:28;21.00;;;15.30;;
53753;SDS011;39667;52.274;20.964;2024-01-30T09:42:57;20.40;;;14.40;;
53753;SDS011;39667;52.274;20.964;2024-01-30T09:45:26;21.80;;;13.60;;
53753;SDS011;39667;52.274;20.964;2024-01-30T09:47:54;19.30;;;13.90;;
53753;SDS011;39667;52.274;20.964;2024-01-30T09:50:26;15.30;;;12.80;;
53753;SDS011;39667;52.274;20.964;2024-01-30T09:52:53;23.80;;;14.30;;
53753;SDS011;39667;52.274;20.964;2024-01-30T09:55:22;16.80;;;13.00;;
53753;SDS011;39667;52.274;20.964;2024-01-30T09:57:51;19.60;;;12.80;;
53753;SDS011;39667;52.274;20.964;2024-01-30T10:00:18;20.20;;;13.30;;
53753;SDS011;39667;52.274;20.964;2024-01-30T10:02:46;22.80;;;12.60;;
53753;SDS011;39667;52.274;20.964;2024-01-30T10:05:15;20.30;;;11.90;;
53753;SDS011;39667;52.274;20.964;2024-01-30T10:07:55;15.90;;;11.50;;
53753;SDS011;39667;52.274;20.964;2024-01-30T10:10:37;18.00;;;12.60;;
53753;SDS011;39667;52.274;20.964;2024-01-30T10:13:05;15.30;;;11.80;;
53753;SDS011;39667;52.274;20.964;2024-01-30T10:15:33;16.30;;;11.60;;
53753;SDS011;39667;52.274;20.964;2024-01-30T10:18:02;19.20;;;11.80;;
53753;SDS011;39667;52.274;20.964;2024-01-30T10:20:36;19.20;;;13.00;;
53753;SDS011;39667;52.274;20.964;2024-01-30T10:23:03;17.00;;;11.80;;
53753;SDS011;39667;52.274;20.964;2024-01-30T10:25:30;17.70;;;12.20;;
53753;SDS011;39667;52.274;20.964;2024-01-30T10:27:59;18.80;;;12.30;;
53753;SDS011;39667;52.274;20.964;2024-01-30T10:30:32;19.10;;;12.80;;
53753;SDS011;39667;52.274;20.964;2024-01-30T10:33:00;18.60;;;11.60;;
53753;SDS011;39667;52.274;20.964;2024-01-30T10:35:27;16.70;;;11.80;;
53753;SDS011;39667;52.274;20.964;2024-01-30T10:37:56;16.60;;;12.50;;
53753;SDS011;39667;52.274;20.964;2024-01-30T10:40:28;15.80;;;11.40;;
53753;SDS011;39667;52.274;20.964;2024-01-30T10:43:03;16.90;;;12.20;;
53753;SDS011;39667;52.274;20.964;2024-01-30T10:45:34;15.90;;;12.00;;
53753;SDS011;39667;52.274;20.964;2024-01-30T10:48:06;15.90;;;12.60;;
53753;SDS011;39667;52.274;20.964;2024-01-30T10:50:36;19.90;;;11.50;;
53753;SDS011;39667;52.274;20.964;2024-01-30T10:53:21;19.20;;;11.90;;
53753;SDS011;39667;52.274;20.964;2024-01-30T10:55:50;17.10;;;11.40;;
53753;SDS011;39667;52.274;20.964;2024-01-30T10:58:20;14.20;;;10.70;;
53753;SDS011;39667;52.274;20.964;2024-01-30T11:00:49;19.30;;;11.90;;
53753;SDS011;39667;52.274;20.964;2024-01-30T11:03:20;16.30;;;11.60;;
53753;SDS011;39667;52.274;20.964;2024-01-30T11:05:52;15.80;;;11.40;;
53753;SDS011;39667;52.274;20.964;2024-01-30T11:08:23;15.60;;;10.90;;
53753;SDS011;39667;52.274;20.964;2024-01-30T11:10:56;18.00;;;11.90;;
53753;SDS011;39667;52.274;20.964;2024-01-30T11:13:29;15.80;;;10.90;;
53753;SDS011;39667;52.274;20.964;2024-01-30T11:16:02;17.90;;;11.80;;
53753;SDS011;39667;52.274;20.964;2024-01-30T11:18:35;33.10;;;12.50;;
53753;SDS011;39667;52.274;20.964;2024-01-30T11:21:06;16.30;;;10.60;;
53753;SDS011;39667;52.274;20.964;2024-01-30T11:23:33;16.10;;;11.80;;
53753;SDS011;39667;52.274;20.964;2024-01-30T11:26:03;16.10;;;11.40;;
53753;SDS011;39667;52.274;20.964;2024-01-30T11:28:32;21.70;;;12.20;;
53753;SDS011;39667;52.274;20.964;2024-01-30T11:31:04;17.10;;;11.30;;
53753;SDS011;39667;52.274;20.964;2024-01-30T11:33:35;18.10;;;11.50;;
53753;SDS011;39667;52.274;20.964;2024-01-30T11:36:03;18.40;;;12.20;;
53753;SDS011;39667;52.274;20.964;2024-01-30T11:38:34;18.00;;;11.70;;
53753;SDS011;39667;52.274;20.964;2024-01-30T11:41:01;17.00;;;11.90;;
53753;SDS011;39667;52.274;20.964;2024-01-30T11:43:30;15.60;;;11.40;;
53753;SDS011;39667;52.274;20.964;2024-01-30T11:46:01;15.20;;;10.80;;
53753;SDS011;39667;52.274;20.964;2024-01-30T11:48:29;15.60;;;10.90;;
53753;SDS011;39667;52.274;20.964;2024-01-30T11:50:56;14.70;;;10.10;;
53753;SDS011;39667;52.274;20.964;2024-01-30T11:53:23;14.70;;;10.90;;
53753;SDS011;39667;52.274;20.964;2024-01-30T11:55:52;15.30;;;10.70;;
53753;SDS011;39667;52.274;20.964;2024-01-30T11:58:20;16.00;;;10.60;;
53753;SDS011;39667;52.274;20.964;2024-01-30T12:00:57;18.10;;;11.30;;
53753;SDS011;39667;52.274;20.964;2024-01-30T12:03:25;15.60;;;10.80;;
53753;SDS011;39667;52.274;20.964;2024-01-30T12:05:56;15.60;;;10.50;;
53753;SDS011;39667;52.274;20.964;2024-01-30T12:08:28;17.00;;;10.70;;
53753;SDS011;39667;52.274;20.964;2024-01-30T12:10:56;17.20;;;10.70;;
53753;SDS011;39667;52.274;20.964;2024-01-30T12:13:28;15.30;;;10.70;;
53753;SDS011;39667;52.274;20.964;2024-01-30T12:15:59;13.40;;;9.20;;
53753;SDS011;39667;52.274;20.964;2024-01-30T12:18:28;14.10;;;10.60;;
53753;SDS011;39667;52.274;20.964;2024-01-30T12:20:58;15.30;;;9.60;;
53753;SDS011;39667;52.274;20.964;2024-01-30T12:23:30;14.00;;;11.10;;
53753;SDS011;39667;52.274;20.964;2024-01-30T12:25:57;14.00;;;9.20;;
53753;SDS011;39667;52.274;20.964;2024-01-30T12:30:14;15.70;;;11.00;;
53753;SDS011;39667;52.274;20.964;2024-01-30T12:32:47;16.50;;;12.20;;
53753;SDS011;39667;52.274;20.964;2024-01-30T12:35:24;15.10;;;11.60;;
53753;SDS011;39667;52.274;20.964;2024-01-30T12:37:54;16.60;;;12.10;;
53753;SDS011;39667;52.274;20.964;2024-01-30T12:40:21;18.70;;;11.80;;
53753;SDS011;39667;52.274;20.964;2024-01-30T12:42:48;14.60;;;11.00;;
53753;SDS011;39667;52.274;20.964;2024-01-30T12:45:16;16.70;;;11.70;;
53753;SDS011;39667;52.274;20.964;2024-01-30T12:47:50;16.20;;;12.00;;
53753;SDS011;39667;52.274;20.964;2024-01-30T12:50:20;14.60;;;11.00;;
53753;SDS011;39667;52.274;20.964;2024-01-30T12:52:49;14.80;;;11.00;;
53753;SDS011;39667;52.274;20.964;2024-01-30T12:55:17;15.60;;;11.40;;
53753;SDS011;39667;52.274;20.964;2024-01-30T12:57:45;18.20;;;11.80;;
53753;SDS011;39667;52.274;20.964;2024-01-30T13:00:13;17.20;;;12.10;;
53753;SDS011;39667;52.274;20.964;2024-01-30T13:02:44;18.70;;;11.60;;
53753;SDS011;39667;52.274;20.964;2024-01-30T13:05:24;18.40;;;11.80;;
53753;SDS011;39667;52.274;20.964;2024-01-30T13:07:52;14.80;;;11.00;;
53753;SDS011;39667;52.274;20.964;2024-01-30T13:10:23;15.50;;;10.90;;
53753;SDS011;39667;52.274;20.964;2024-01-30T13:12:53;17.40;;;12.50;;
53753;SDS011;39667;52.274;20.964;2024-01-30T13:15:20;15.10;;;11.10;;
53753;SDS011;39667;52.274;20.964;2024-01-30T13:17:49;17.70;;;12.40;;
53753;SDS011;39667;52.274;20.964;2024-01-30T13:20:17;17.80;;;11.30;;
53753;SDS011;39667;52.274;20.964;2024-01-30T13:22:47;13.50;;;10.60;;
53753;SDS011;39667;52.274;20.964;2024-01-30T13:25:16;17.10;;;11.50;;
53753;SDS011;39667;52.274;20.964;2024-01-30T13:27:45;15.10;;;10.70;;
53753;SDS011;39667;52.274;20.964;2024-01-30T13:30:14;19.00;;;11.10;;
53753;SDS011;39667;52.274;20.964;2024-01-30T13:32:43;17.70;;;11.20;;
53753;SDS011;39667;52.274;20.964;2024-01-30T13:35:16;16.30;;;11.70;;
53753;SDS011;39667;52.274;20.964;2024-01-30T13:40:36;14.70;;;11.30;;
53753;SDS011;39667;52.274;20.964;2024-01-30T13:43:06;20.20;;;12.20;;
53753;SDS011;39667;52.274;20.964;2024-01-30T13:45:34;15.30;;;11.30;;
53753;SDS011;39667;52.274;20.964;2024-01-30T13:48:04;18.50;;;12.60;;
53753;SDS011;39667;52.274;20.964;2024-01-30T13:50:33;17.60;;;11.80;;
53753;SDS011;39667;52.274;20.964;2024-01-30T13:53:02;17.90;;;12.30;;
53753;SDS011;39667;52.274;20.964;2024-01-30T13:55:32;18.90;;;12.20;;
53753;SDS011;39667;52.274;20.964;2024-01-30T13:58:02;17.40;;;11.90;;
53753;SDS011;39667;52.274;20.964;2024-01-30T14:00:32;19.60;;;11.90;;
53753;SDS011;39667;52.274;20.964;2024-01-30T14:03:03;15.40;;;11.40;;
53753;SDS011;39667;52.274;20.964;2024-01-30T14:05:34;17.40;;;12.40;;
53753;SDS011;39667;52.274;20.964;2024-01-30T14:08:04;20.20;;;12.50;;
53753;SDS011;39667;52.274;20.964;2024-01-30T14:10:33;19.40;;;13.50;;
53753;SDS011;39667;52.274;20.964;2024-01-30T14:13:01;18.60;;;12.60;;
53753;SDS011;39667;52.274;20.964;2024-01-30T14:15:34;17.60;;;11.80;;
53753;SDS011;39667;52.274;20.964;2024-01-30T14:18:08;18.30;;;12.70;;
53753;SDS011;39667;52.274;20.964;2024-01-30T14:20:41;18.20;;;12.60;;
53753;SDS011;39667;52.274;20.964;2024-01-30T14:23:10;16.30;;;11.70;;
53753;SDS011;39667;52.274;20.964;2024-01-30T14:25:38;20.40;;;12.40;;